sensor_id;sensor_type;location;lat;lon;timestamp;P1;durP1;ratioP1;P2;durP2;ratioP2
49366;SDS011;35245;52.026;8.540;2022-09-17T00:01:19;12.43;;;4.32;;
49366;SDS011;35245;52.026;8.540;2022-09-17T00:03:48;13.13;;;4.20;;
49366;SDS011;35245;52.026;8.540;2022-09-17T00:06:16;12.52;;;4.90;;
49366;SDS011;35245;52.026;8.540;2022-09-17T00:08:43;13.07;;;4.47;;
49366;SDS011;35245;52.026;8.540;2022-09-17T00:11:11;17.23;;;4.57;;
49366;SDS011;35245;52.026;8.540;2022-09-17T00:13:42;10.80;;;4.10;;
49366;SDS011;35245;52.026;8.540;2022-09-17T00:16:10;10.57;;;4.82;;
49366;SDS011;35245;52.026;8.540;2022-09-17T00:18:37;17.02;;;4.78;;
49366;SDS011;35245;52.026;8.540;2022-09-17T00:21:06;15.93;;;4.85;;
49366;SDS011;35245;52.026;8.540;2022-09-17T00:23:41;14.18;;;4.90;;
49366;SDS011;35245;52.026;8.540;2022-09-17T00:26:08;13.98;;;4.57;;
49366;SDS011;35245;52.026;8.540;2022-09-17T00:28:35;11.15;;;4.47;;
49366;SDS011;35245;52.026;8.540;2022-09-17T00:31:06;14.77;;;5.35;;
49366;SDS011;35245;52.026;8.540;2022-09-17T00:33:34;19.38;;;4.75;;
49366;SDS011;35245;52.026;8.540;2022-09-17T00:36:02;14.15;;;5.05;;
49366;SDS011;35245;52.026;8.540;2022-09-17T00:38:30;21.58;;;5.85;;
49366;SDS011;35245;52.026;8.540;2022-09-17T00:40:57;17.00;;;5.63;;
49366;SDS011;35245;52.026;8.540;2022-09-17T00:43:35;17.40;;;5.30;;
49366;SDS011;35245;52.026;8.540;2022-09-17T00:46:11;16.17;;;5.55;;
49366;SDS011;35245;52.026;8.540;2022-09-17T00:48:50;18.77;;;6.00;;
49366;SDS011;35245;52.026;8.540;2022-09-17T00:51:19;19.23;;;6.18;;
49366;SDS011;35245;52.026;8.540;2022-09-17T00:53:48;20.92;;;6.18;;
49366;SDS011;35245;52.026;8.540;2022-09-17T00:56:17;19.42;;;6.65;;
49366;SDS011;35245;52.026;8.540;2022-09-17T00:58:47;22.90;;;6.15;;
49366;SDS011;35245;52.026;8.540;2022-09-17T01:01:16;24.70;;;5.70;;
49366;SDS011;35245;52.026;8.540;2022-09-17T01:03:43;21.23;;;6.35;;
49366;SDS011;35245;52.026;8.540;2022-09-17T01:06:12;22.05;;;5.47;;
49366;SDS011;35245;52.026;8.540;2022-09-17T01:08:50;19.40;;;5.82;;
49366;SDS011;35245;52.026;8.540;2022-09-17T01:14:18;19.77;;;4.93;;
49366;SDS011;35245;52.026;8.540;2022-09-17T01:16:54;29.02;;;6.43;;
49366;SDS011;35245;52.026;8.540;2022-09-17T01:22:39;21.40;;;5.68;;
49366;SDS011;35245;52.026;8.540;2022-09-17T01:25:18;22.88;;;5.18;;
49366;SDS011;35245;52.026;8.540;2022-09-17T01:27:56;18.88;;;5.22;;
49366;SDS011;35245;52.026;8.540;2022-09-17T01:30:59;19.90;;;6.32;;
49366;SDS011;35245;52.026;8.540;2022-09-17T01:33:36;28.55;;;6.38;;
49366;SDS011;35245;52.026;8.540;2022-09-17T01:36:16;23.95;;;6.10;;
49366;SDS011;35245;52.026;8.540;2022-09-17T01:38:49;20.17;;;5.75;;
49366;SDS011;35245;52.026;8.540;2022-09-17T01:41:21;19.95;;;4.63;;
49366;SDS011;35245;52.026;8.540;2022-09-17T01:43:56;22.05;;;5.63;;
49366;SDS011;35245;52.026;8.540;2022-09-17T01:46:29;21.50;;;6.30;;
49366;SDS011;35245;52.026;8.540;2022-09-17T01:49:00;22.42;;;6.40;;
49366;SDS011;35245;52.026;8.540;2022-09-17T01:51:29;21.13;;;5.60;;
49366;SDS011;35245;52.026;8.540;2022-09-17T01:54:04;23.83;;;5.70;;
49366;SDS011;35245;52.026;8.540;2022-09-17T01:56:35;19.70;;;6.45;;
49366;SDS011;35245;52.026;8.540;2022-09-17T01:59:05;30.40;;;7.45;;
49366;SDS011;35245;52.026;8.540;2022-09-17T02:01:36;24.80;;;6.63;;
49366;SDS011;35245;52.026;8.540;2022-09-17T02:04:06;25.05;;;6.32;;
49366;SDS011;35245;52.026;8.540;2022-09-17T02:06:35;24.00;;;6.70;;
49366;SDS011;35245;52.026;8.540;2022-09-17T02:09:05;29.38;;;7.18;;
49366;SDS011;35245;52.026;8.540;2022-09-17T02:11:34;24.98;;;6.60;;
49366;SDS011;35245;52.026;8.540;2022-09-17T02:14:04;21.27;;;5.40;;
49366;SDS011;35245;52.026;8.540;2022-09-17T02:16:34;24.08;;;6.13;;
49366;SDS011;35245;52.026;8.540;2022-09-17T02:19:04;23.23;;;6.50;;
49366;SDS011;35245;52.026;8.540;2022-09-17T02:21:35;21.00;;;5.38;;
49366;SDS011;35245;52.026;8.540;2022-09-17T02:24:10;16.25;;;4.38;;
49366;SDS011;35245;52.026;8.540;2022-09-17T02:26:44;21.58;;;4.82;;
49366;SDS011;35245;52.026;8.540;2022-09-17T02:29:15;25.73;;;6.22;;
49366;SDS011;35245;52.026;8.540;2022-09-17T02:31:46;28.15;;;5.50;;
49366;SDS011;35245;52.026;8.540;2022-09-17T02:34:13;23.30;;;5.28;;
49366;SDS011;35245;52.026;8.540;2022-09-17T02:36:40;20.75;;;4.93;;
49366;SDS011;35245;52.026;8.540;2022-09-17T02:39:07;19.20;;;5.03;;
49366;SDS011;35245;52.026;8.540;2022-09-17T02:41:37;21.02;;;5.10;;
49366;SDS011;35245;52.026;8.540;2022-09-17T02:44:13;21.90;;;5.07;;
49366;SDS011;35245;52.026;8.540;2022-09-17T02:46:49;21.55;;;5.80;;
49366;SDS011;35245;52.026;8.540;2022-09-17T02:49:30;16.40;;;4.30;;
49366;SDS011;35245;52.026;8.540;2022-09-17T02:52:09;18.50;;;4.15;;
49366;SDS011;35245;52.026;8.540;2022-09-17T02:54:41;20.65;;;5.53;;
49366;SDS011;35245;52.026;8.540;2022-09-17T02:57:19;19.73;;;5.53;;
49366;SDS011;35245;52.026;8.540;2022-09-17T02:59:51;22.70;;;5.50;;
49366;SDS011;35245;52.026;8.540;2022-09-17T03:02:23;21.65;;;4.63;;
49366;SDS011;35245;52.026;8.540;2022-09-17T03:04:53;29.00;;;5.38;;
49366;SDS011;35245;52.026;8.540;2022-09-17T03:07:21;17.58;;;4.22;;
49366;SDS011;35245;52.026;8.540;2022-09-17T03:09:48;20.80;;;4.25;;
49366;SDS011;35245;52.026;8.540;2022-09-17T03:12:16;21.30;;;4.25;;
49366;SDS011;35245;52.026;8.540;2022-09-17T03:14:43;29.15;;;5.03;;
49366;SDS011;35245;52.026;8.540;2022-09-17T03:17:10;16.00;;;3.78;;
49366;SDS011;35245;52.026;8.540;2022-09-17T03:19:40;26.35;;;4.93;;
49366;SDS011;35245;52.026;8.540;2022-09-17T03:22:07;20.42;;;5.00;;
49366;SDS011;35245;52.026;8.540;2022-09-17T03:24:34;22.40;;;4.53;;
49366;SDS011;35245;52.026;8.540;2022-09-17T03:27:01;17.30;;;3.80;;
49366;SDS011;35245;52.026;8.540;2022-09-17T03:29:28;27.92;;;4.45;;
49366;SDS011;35245;52.026;8.540;2022-09-17T03:31:55;26.40;;;4.78;;
49366;SDS011;35245;52.026;8.540;2022-09-17T03:34:23;20.50;;;4.40;;
49366;SDS011;35245;52.026;8.540;2022-09-17T03:36:51;25.35;;;4.35;;
49366;SDS011;35245;52.026;8.540;2022-09-17T03:39:18;25.58;;;4.72;;
49366;SDS011;35245;52.026;8.540;2022-09-17T03:41:45;17.73;;;4.28;;
49366;SDS011;35245;52.026;8.540;2022-09-17T03:44:12;25.42;;;4.55;;
49366;SDS011;35245;52.026;8.540;2022-09-17T03:46:40;25.42;;;4.47;;
49366;SDS011;35245;52.026;8.540;2022-09-17T03:49:07;26.65;;;3.80;;
49366;SDS011;35245;52.026;8.540;2022-09-17T03:51:34;20.42;;;4.15;;
49366;SDS011;35245;52.026;8.540;2022-09-17T03:54:03;22.48;;;3.67;;
49366;SDS011;35245;52.026;8.540;2022-09-17T03:56:30;16.63;;;4.05;;
49366;SDS011;35245;52.026;8.540;2022-09-17T03:58:57;15.95;;;4.18;;
49366;SDS011;35245;52.026;8.540;2022-09-17T04:01:25;24.27;;;4.35;;
49366;SDS011;35245;52.026;8.540;2022-09-17T04:03:52;25.60;;;3.95;;
49366;SDS011;35245;52.026;8.540;2022-09-17T04:06:19;21.38;;;4.70;;
49366;SDS011;35245;52.026;8.540;2022-09-17T04:08:46;22.27;;;4.70;;
49366;SDS011;35245;52.026;8.540;2022-09-17T04:11:15;20.02;;;3.85;;
49366;SDS011;35245;52.026;8.540;2022-09-17T04:13:42;26.58;;;4.18;;
49366;SDS011;35245;52.026;8.540;2022-09-17T04:16:09;20.70;;;3.90;;
49366;SDS011;35245;52.026;8.540;2022-09-17T04:18:36;21.70;;;4.32;;
49366;SDS011;35245;52.026;8.540;2022-09-17T04:21:03;18.25;;;3.30;;
49366;SDS011;35245;52.026;8.540;2022-09-17T04:23:31;22.40;;;4.10;;
49366;SDS011;35245;52.026;8.540;2022-09-17T04:25:58;17.45;;;3.33;;
49366;SDS011;35245;52.026;8.540;2022-09-17T04:28:26;18.63;;;3.78;;
49366;SDS011;35245;52.026;8.540;2022-09-17T04:30:53;19.83;;;3.97;;
49366;SDS011;35245;52.026;8.540;2022-09-17T04:33:21;16.45;;;3.47;;
49366;SDS011;35245;52.026;8.540;2022-09-17T04:35:48;22.23;;;3.65;;
49366;SDS011;35245;52.026;8.540;2022-09-17T04:38:15;19.92;;;3.75;;
49366;SDS011;35245;52.026;8.540;2022-09-17T04:40:42;24.85;;;3.60;;
49366;SDS011;35245;52.026;8.540;2022-09-17T04:43:10;21.40;;;3.30;;
49366;SDS011;35245;52.026;8.540;2022-09-17T04:45:39;20.27;;;3.67;;
49366;SDS011;35245;52.026;8.540;2022-09-17T04:48:06;18.45;;;3.35;;
49366;SDS011;35245;52.026;8.540;2022-09-17T04:50:33;23.52;;;4.63;;
49366;SDS011;35245;52.026;8.540;2022-09-17T04:53:01;24.35;;;4.28;;
49366;SDS011;35245;52.026;8.540;2022-09-17T04:55:28;17.05;;;4.18;;
49366;SDS011;35245;52.026;8.540;2022-09-17T04:57:56;23.15;;;3.88;;
49366;SDS011;35245;52.026;8.540;2022-09-17T05:00:24;18.23;;;3.22;;
49366;SDS011;35245;52.026;8.540;2022-09-17T05:02:53;23.95;;;4.00;;
49366;SDS011;35245;52.026;8.540;2022-09-17T05:05:20;20.42;;;3.30;;
49366;SDS011;35245;52.026;8.540;2022-09-17T05:07:48;26.48;;;4.13;;
49366;SDS011;35245;52.026;8.540;2022-09-17T05:10:15;20.52;;;4.60;;
49366;SDS011;35245;52.026;8.540;2022-09-17T05:12:46;24.00;;;4.15;;
49366;SDS011;35245;52.026;8.540;2022-09-17T05:15:14;25.60;;;4.05;;
49366;SDS011;35245;52.026;8.540;2022-09-17T05:17:41;27.08;;;4.47;;
49366;SDS011;35245;52.026;8.540;2022-09-17T05:20:10;17.65;;;3.78;;
49366;SDS011;35245;52.026;8.540;2022-09-17T05:22:39;19.23;;;3.72;;
49366;SDS011;35245;52.026;8.540;2022-09-17T05:25:07;22.48;;;4.40;;
49366;SDS011;35245;52.026;8.540;2022-09-17T05:27:34;22.75;;;3.92;;
49366;SDS011;35245;52.026;8.540;2022-09-17T05:30:02;22.23;;;3.50;;
49366;SDS011;35245;52.026;8.540;2022-09-17T05:32:30;20.67;;;3.58;;
49366;SDS011;35245;52.026;8.540;2022-09-17T05:34:57;30.70;;;4.15;;
49366;SDS011;35245;52.026;8.540;2022-09-17T05:37:25;23.17;;;3.33;;
49366;SDS011;35245;52.026;8.540;2022-09-17T05:39:52;20.55;;;3.85;;
49366;SDS011;35245;52.026;8.540;2022-09-17T05:42:20;20.60;;;3.80;;
49366;SDS011;35245;52.026;8.540;2022-09-17T05:44:47;18.38;;;3.40;;
49366;SDS011;35245;52.026;8.540;2022-09-17T05:47:14;22.65;;;3.75;;
49366;SDS011;35245;52.026;8.540;2022-09-17T05:49:41;19.60;;;3.30;;
49366;SDS011;35245;52.026;8.540;2022-09-17T05:52:10;20.30;;;3.17;;
49366;SDS011;35245;52.026;8.540;2022-09-17T05:54:39;17.05;;;4.13;;
49366;SDS011;35245;52.026;8.540;2022-09-17T05:57:06;25.40;;;3.78;;
49366;SDS011;35245;52.026;8.540;2022-09-17T05:59:33;17.30;;;3.20;;
49366;SDS011;35245;52.026;8.540;2022-09-17T06:02:00;13.82;;;2.90;;
49366;SDS011;35245;52.026;8.540;2022-09-17T06:04:27;12.63;;;2.97;;
49366;SDS011;35245;52.026;8.540;2022-09-17T06:06:57;22.33;;;3.45;;
49366;SDS011;35245;52.026;8.540;2022-09-17T06:09:24;22.13;;;2.92;;
49366;SDS011;35245;52.026;8.540;2022-09-17T06:11:53;21.35;;;3.03;;
49366;SDS011;35245;52.026;8.540;2022-09-17T06:14:20;22.45;;;3.53;;
49366;SDS011;35245;52.026;8.540;2022-09-17T06:16:48;16.45;;;3.78;;
49366;SDS011;35245;52.026;8.540;2022-09-17T06:19:15;11.05;;;2.80;;
49366;SDS011;35245;52.026;8.540;2022-09-17T06:21:42;14.90;;;3.10;;
49366;SDS011;35245;52.026;8.540;2022-09-17T06:24:09;16.10;;;3.20;;
49366;SDS011;35245;52.026;8.540;2022-09-17T06:26:36;22.10;;;3.10;;
49366;SDS011;35245;52.026;8.540;2022-09-17T06:29:04;13.48;;;2.80;;
49366;SDS011;35245;52.026;8.540;2022-09-17T06:31:31;14.45;;;2.58;;
49366;SDS011;35245;52.026;8.540;2022-09-17T06:33:58;16.70;;;2.83;;
49366;SDS011;35245;52.026;8.540;2022-09-17T06:36:26;18.58;;;3.25;;
49366;SDS011;35245;52.026;8.540;2022-09-17T06:38:53;19.88;;;3.35;;
49366;SDS011;35245;52.026;8.540;2022-09-17T06:41:20;22.92;;;3.60;;
49366;SDS011;35245;52.026;8.540;2022-09-17T06:43:47;13.52;;;2.45;;
49366;SDS011;35245;52.026;8.540;2022-09-17T06:46:18;20.35;;;3.13;;
49366;SDS011;35245;52.026;8.540;2022-09-17T06:48:45;20.80;;;3.45;;
49366;SDS011;35245;52.026;8.540;2022-09-17T06:51:13;21.25;;;3.60;;
49366;SDS011;35245;52.026;8.540;2022-09-17T06:53:40;17.70;;;3.58;;
49366;SDS011;35245;52.026;8.540;2022-09-17T06:56:07;10.98;;;2.95;;
49366;SDS011;35245;52.026;8.540;2022-09-17T06:58:35;15.07;;;3.05;;
49366;SDS011;35245;52.026;8.540;2022-09-17T07:01:02;14.70;;;3.03;;
49366;SDS011;35245;52.026;8.540;2022-09-17T07:03:32;13.88;;;2.58;;
49366;SDS011;35245;52.026;8.540;2022-09-17T07:06:00;16.67;;;3.30;;
49366;SDS011;35245;52.026;8.540;2022-09-17T07:08:27;14.20;;;2.70;;
49366;SDS011;35245;52.026;8.540;2022-09-17T07:10:54;12.70;;;3.10;;
49366;SDS011;35245;52.026;8.540;2022-09-17T07:13:21;15.07;;;2.97;;
49366;SDS011;35245;52.026;8.540;2022-09-17T07:15:52;15.65;;;3.00;;
49366;SDS011;35245;52.026;8.540;2022-09-17T07:18:20;12.43;;;3.00;;
49366;SDS011;35245;52.026;8.540;2022-09-17T07:20:52;12.30;;;3.08;;
49366;SDS011;35245;52.026;8.540;2022-09-17T07:23:21;12.60;;;2.83;;
49366;SDS011;35245;52.026;8.540;2022-09-17T07:25:51;13.98;;;3.03;;
49366;SDS011;35245;52.026;8.540;2022-09-17T07:28:19;12.23;;;2.90;;
49366;SDS011;35245;52.026;8.540;2022-09-17T07:30:46;18.40;;;2.90;;
49366;SDS011;35245;52.026;8.540;2022-09-17T07:33:14;15.70;;;3.22;;
49366;SDS011;35245;52.026;8.540;2022-09-17T07:35:43;12.48;;;3.08;;
49366;SDS011;35245;52.026;8.540;2022-09-17T07:38:19;16.65;;;3.13;;
49366;SDS011;35245;52.026;8.540;2022-09-17T07:40:51;14.25;;;2.97;;
49366;SDS011;35245;52.026;8.540;2022-09-17T07:43:22;15.10;;;2.85;;
49366;SDS011;35245;52.026;8.540;2022-09-17T07:45:50;13.18;;;2.78;;
49366;SDS011;35245;52.026;8.540;2022-09-17T07:48:18;15.77;;;2.63;;
49366;SDS011;35245;52.026;8.540;2022-09-17T07:50:45;9.02;;;1.98;;
49366;SDS011;35245;52.026;8.540;2022-09-17T07:53:14;18.05;;;3.55;;
49366;SDS011;35245;52.026;8.540;2022-09-17T07:55:41;15.15;;;2.63;;
49366;SDS011;35245;52.026;8.540;2022-09-17T07:58:08;10.13;;;2.67;;
49366;SDS011;35245;52.026;8.540;2022-09-17T08:00:35;13.88;;;2.63;;
49366;SDS011;35245;52.026;8.540;2022-09-17T08:03:04;15.45;;;3.05;;
49366;SDS011;35245;52.026;8.540;2022-09-17T08:05:34;12.30;;;2.85;;
49366;SDS011;35245;52.026;8.540;2022-09-17T08:08:01;13.13;;;2.45;;
49366;SDS011;35245;52.026;8.540;2022-09-17T08:10:29;10.98;;;2.85;;
49366;SDS011;35245;52.026;8.540;2022-09-17T08:12:56;16.65;;;2.97;;
49366;SDS011;35245;52.026;8.540;2022-09-17T08:15:24;13.07;;;2.90;;
49366;SDS011;35245;52.026;8.540;2022-09-17T08:17:51;16.13;;;2.72;;
49366;SDS011;35245;52.026;8.540;2022-09-17T08:20:18;13.98;;;3.00;;
49366;SDS011;35245;52.026;8.540;2022-09-17T08:22:45;14.68;;;3.53;;
49366;SDS011;35245;52.026;8.540;2022-09-17T08:25:12;13.90;;;2.50;;
49366;SDS011;35245;52.026;8.540;2022-09-17T08:27:41;15.60;;;2.45;;
49366;SDS011;35245;52.026;8.540;2022-09-17T08:30:08;11.30;;;2.85;;
49366;SDS011;35245;52.026;8.540;2022-09-17T08:32:35;17.35;;;2.65;;
49366;SDS011;35245;52.026;8.540;2022-09-17T08:35:03;13.07;;;2.90;;
49366;SDS011;35245;52.026;8.540;2022-09-17T08:37:33;11.20;;;2.38;;
49366;SDS011;35245;52.026;8.540;2022-09-17T08:40:00;13.80;;;3.13;;
49366;SDS011;35245;52.026;8.540;2022-09-17T08:42:29;13.68;;;3.03;;
49366;SDS011;35245;52.026;8.540;2022-09-17T08:45:00;17.10;;;2.65;;
49366;SDS011;35245;52.026;8.540;2022-09-17T08:47:29;18.98;;;2.97;;
49366;SDS011;35245;52.026;8.540;2022-09-17T08:50:00;11.68;;;3.03;;
49366;SDS011;35245;52.026;8.540;2022-09-17T08:58:01;14.90;;;3.35;;
49366;SDS011;35245;52.026;8.540;2022-09-17T09:01:09;7.95;;;2.33;;
49366;SDS011;35245;52.026;8.540;2022-09-17T09:03:45;15.95;;;2.78;;
49366;SDS011;35245;52.026;8.540;2022-09-17T09:06:20;11.68;;;2.80;;
49366;SDS011;35245;52.026;8.540;2022-09-17T09:08:53;10.20;;;2.63;;
49366;SDS011;35245;52.026;8.540;2022-09-17T09:11:24;9.80;;;2.50;;
49366;SDS011;35245;52.026;8.540;2022-09-17T09:16:25;12.10;;;1.52;;
49366;SDS011;35245;52.026;8.540;2022-09-17T09:18:53;7.32;;;1.65;;
49366;SDS011;35245;52.026;8.540;2022-09-17T09:21:24;13.68;;;2.33;;
49366;SDS011;35245;52.026;8.540;2022-09-17T09:23:53;8.98;;;1.98;;
49366;SDS011;35245;52.026;8.540;2022-09-17T09:26:25;10.65;;;2.35;;
49366;SDS011;35245;52.026;8.540;2022-09-17T09:29:02;8.38;;;1.95;;
49366;SDS011;35245;52.026;8.540;2022-09-17T09:31:36;8.88;;;1.88;;
49366;SDS011;35245;52.026;8.540;2022-09-17T09:34:23;4.68;;;1.30;;
49366;SDS011;35245;52.026;8.540;2022-09-17T09:36:51;11.35;;;1.85;;
49366;SDS011;35245;52.026;8.540;2022-09-17T09:39:20;6.93;;;1.48;;
49366;SDS011;35245;52.026;8.540;2022-09-17T09:41:51;8.07;;;1.83;;
49366;SDS011;35245;52.026;8.540;2022-09-17T09:44:19;9.02;;;1.40;;
49366;SDS011;35245;52.026;8.540;2022-09-17T09:46:56;5.15;;;1.77;;
49366;SDS011;35245;52.026;8.540;2022-09-17T09:49:54;8.23;;;1.80;;
49366;SDS011;35245;52.026;8.540;2022-09-17T09:52:33;4.97;;;1.35;;
49366;SDS011;35245;52.026;8.540;2022-09-17T09:55:20;7.13;;;1.48;;
49366;SDS011;35245;52.026;8.540;2022-09-17T09:57:55;7.95;;;1.92;;
49366;SDS011;35245;52.026;8.540;2022-09-17T10:00:34;5.75;;;1.10;;
49366;SDS011;35245;52.026;8.540;2022-09-17T10:03:13;4.80;;;1.38;;
49366;SDS011;35245;52.026;8.540;2022-09-17T10:05:51;6.03;;;1.60;;
49366;SDS011;35245;52.026;8.540;2022-09-17T10:08:19;7.65;;;1.90;;
49366;SDS011;35245;52.026;8.540;2022-09-17T10:10:53;8.50;;;2.00;;
49366;SDS011;35245;52.026;8.540;2022-09-17T10:13:29;9.85;;;2.10;;
49366;SDS011;35245;52.026;8.540;2022-09-17T10:20:57;8.50;;;1.80;;
49366;SDS011;35245;52.026;8.540;2022-09-17T10:23:26;7.25;;;1.70;;
49366;SDS011;35245;52.026;8.540;2022-09-17T10:25:54;8.68;;;1.70;;
49366;SDS011;35245;52.026;8.540;2022-09-17T10:28:29;7.40;;;2.15;;
49366;SDS011;35245;52.026;8.540;2022-09-17T10:31:01;9.95;;;1.60;;
49366;SDS011;35245;52.026;8.540;2022-09-17T10:33:34;15.60;;;3.13;;
49366;SDS011;35245;52.026;8.540;2022-09-17T10:36:02;11.52;;;1.70;;
49366;SDS011;35245;52.026;8.540;2022-09-17T10:38:41;8.75;;;2.08;;
49366;SDS011;35245;52.026;8.540;2022-09-17T10:41:14;8.25;;;1.58;;
49366;SDS011;35245;52.026;8.540;2022-09-17T10:43:43;11.23;;;2.60;;
49366;SDS011;35245;52.026;8.540;2022-09-17T10:46:12;10.52;;;2.33;;
49366;SDS011;35245;52.026;8.540;2022-09-17T10:48:44;7.25;;;2.60;;
49366;SDS011;35245;52.026;8.540;2022-09-17T10:51:21;6.22;;;1.30;;
49366;SDS011;35245;52.026;8.540;2022-09-17T10:54:04;9.02;;;1.85;;
49366;SDS011;35245;52.026;8.540;2022-09-17T10:56:56;7.38;;;2.00;;
49366;SDS011;35245;52.026;8.540;2022-09-17T10:59:36;5.72;;;1.27;;
49366;SDS011;35245;52.026;8.540;2022-09-17T11:04:59;8.95;;;2.17;;
49366;SDS011;35245;52.026;8.540;2022-09-17T11:07:32;10.27;;;2.60;;
49366;SDS011;35245;52.026;8.540;2022-09-17T11:10:10;5.65;;;2.65;;
49366;SDS011;35245;52.026;8.540;2022-09-17T11:12:44;10.02;;;1.58;;
49366;SDS011;35245;52.026;8.540;2022-09-17T11:15:30;4.85;;;2.08;;
49366;SDS011;35245;52.026;8.540;2022-09-17T11:18:12;9.85;;;2.80;;
49366;SDS011;35245;52.026;8.540;2022-09-17T11:20:52;7.38;;;1.50;;
49366;SDS011;35245;52.026;8.540;2022-09-17T11:23:31;8.23;;;2.42;;
49366;SDS011;35245;52.026;8.540;2022-09-17T11:26:17;11.70;;;1.60;;
49366;SDS011;35245;52.026;8.540;2022-09-17T11:28:56;4.32;;;1.25;;
49366;SDS011;35245;52.026;8.540;2022-09-17T11:31:44;3.08;;;1.10;;
49366;SDS011;35245;52.026;8.540;2022-09-17T11:34:19;5.45;;;1.33;;
49366;SDS011;35245;52.026;8.540;2022-09-17T11:36:52;5.20;;;1.83;;
49366;SDS011;35245;52.026;8.540;2022-09-17T11:39:24;7.20;;;1.90;;
49366;SDS011;35245;52.026;8.540;2022-09-17T11:41:53;7.15;;;2.20;;
49366;SDS011;35245;52.026;8.540;2022-09-17T11:44:23;6.10;;;2.58;;
49366;SDS011;35245;52.026;8.540;2022-09-17T11:46:52;7.20;;;2.70;;
49366;SDS011;35245;52.026;8.540;2022-09-17T11:49:24;7.78;;;2.25;;
49366;SDS011;35245;52.026;8.540;2022-09-17T11:52:00;5.72;;;1.70;;
49366;SDS011;35245;52.026;8.540;2022-09-17T11:54:30;6.35;;;2.10;;
49366;SDS011;35245;52.026;8.540;2022-09-17T11:57:04;6.60;;;2.15;;
49366;SDS011;35245;52.026;8.540;2022-09-17T11:59:33;9.18;;;2.85;;
49366;SDS011;35245;52.026;8.540;2022-09-17T12:02:04;11.77;;;2.92;;
49366;SDS011;35245;52.026;8.540;2022-09-17T12:04:40;6.07;;;1.80;;
49366;SDS011;35245;52.026;8.540;2022-09-17T12:07:20;7.35;;;1.45;;
49366;SDS011;35245;52.026;8.540;2022-09-17T12:09:55;5.13;;;1.63;;
49366;SDS011;35245;52.026;8.540;2022-09-17T12:12:25;5.68;;;2.03;;
49366;SDS011;35245;52.026;8.540;2022-09-17T12:14:54;7.57;;;2.35;;
49366;SDS011;35245;52.026;8.540;2022-09-17T12:17:25;9.75;;;2.97;;
49366;SDS011;35245;52.026;8.540;2022-09-17T12:19:58;4.15;;;1.50;;
49366;SDS011;35245;52.026;8.540;2022-09-17T12:22:29;4.22;;;1.35;;
49366;SDS011;35245;52.026;8.540;2022-09-17T12:24:58;6.30;;;1.70;;
49366;SDS011;35245;52.026;8.540;2022-09-17T12:27:29;5.57;;;2.10;;
49366;SDS011;35245;52.026;8.540;2022-09-17T12:30:10;5.47;;;1.98;;
49366;SDS011;35245;52.026;8.540;2022-09-17T12:32:51;4.45;;;1.75;;
49366;SDS011;35245;52.026;8.540;2022-09-17T12:35:56;6.32;;;2.13;;
49366;SDS011;35245;52.026;8.540;2022-09-17T12:41:14;9.45;;;2.60;;
49366;SDS011;35245;52.026;8.540;2022-09-17T12:43:52;5.18;;;2.13;;
49366;SDS011;35245;52.026;8.540;2022-09-17T12:46:27;8.65;;;2.97;;
49366;SDS011;35245;52.026;8.540;2022-09-17T12:51:53;3.83;;;1.13;;
49366;SDS011;35245;52.026;8.540;2022-09-17T12:54:32;8.57;;;2.40;;
49366;SDS011;35245;52.026;8.540;2022-09-17T12:57:13;8.40;;;2.75;;
49366;SDS011;35245;52.026;8.540;2022-09-17T12:59:47;7.20;;;2.20;;
49366;SDS011;35245;52.026;8.540;2022-09-17T13:02:18;6.50;;;1.23;;
49366;SDS011;35245;52.026;8.540;2022-09-17T13:04:56;4.37;;;1.70;;
49366;SDS011;35245;52.026;8.540;2022-09-17T13:07:52;5.38;;;2.58;;
49366;SDS011;35245;52.026;8.540;2022-09-17T13:10:40;6.70;;;2.97;;
49366;SDS011;35245;52.026;8.540;2022-09-17T13:13:33;3.13;;;1.33;;
49366;SDS011;35245;52.026;8.540;2022-09-17T13:16:05;6.82;;;2.53;;
49366;SDS011;35245;52.026;8.540;2022-09-17T13:18:36;6.10;;;2.40;;
49366;SDS011;35245;52.026;8.540;2022-09-17T13:21:08;5.15;;;2.53;;
49366;SDS011;35245;52.026;8.540;2022-09-17T13:23:42;7.00;;;2.85;;
49366;SDS011;35245;52.026;8.540;2022-09-17T13:26:14;7.13;;;3.30;;
49366;SDS011;35245;52.026;8.540;2022-09-17T13:28:43;6.65;;;2.50;;
49366;SDS011;35245;52.026;8.540;2022-09-17T13:31:11;9.10;;;3.08;;
49366;SDS011;35245;52.026;8.540;2022-09-17T13:33:49;8.55;;;3.53;;
49366;SDS011;35245;52.026;8.540;2022-09-17T13:36:39;10.65;;;3.17;;
49366;SDS011;35245;52.026;8.540;2022-09-17T13:39:08;7.95;;;1.75;;
49366;SDS011;35245;52.026;8.540;2022-09-17T13:41:38;9.73;;;3.50;;
49366;SDS011;35245;52.026;8.540;2022-09-17T13:44:07;6.78;;;3.05;;
49366;SDS011;35245;52.026;8.540;2022-09-17T13:46:36;6.47;;;2.83;;
49366;SDS011;35245;52.026;8.540;2022-09-17T13:49:04;6.65;;;2.30;;
49366;SDS011;35245;52.026;8.540;2022-09-17T13:51:41;3.45;;;1.48;;
49366;SDS011;35245;52.026;8.540;2022-09-17T13:54:13;7.57;;;2.05;;
49366;SDS011;35245;52.026;8.540;2022-09-17T13:56:43;4.00;;;2.03;;
49366;SDS011;35245;52.026;8.540;2022-09-17T13:59:12;5.88;;;2.13;;
49366;SDS011;35245;52.026;8.540;2022-09-17T14:01:56;4.03;;;1.50;;
49366;SDS011;35245;52.026;8.540;2022-09-17T14:09:58;5.10;;;2.20;;
49366;SDS011;35245;52.026;8.540;2022-09-17T14:15:48;8.32;;;2.78;;
49366;SDS011;35245;52.026;8.540;2022-09-17T14:18:36;7.30;;;2.63;;
49366;SDS011;35245;52.026;8.540;2022-09-17T14:21:14;15.45;;;2.53;;
49366;SDS011;35245;52.026;8.540;2022-09-17T14:23:50;11.80;;;3.05;;
49366;SDS011;35245;52.026;8.540;2022-09-17T14:26:27;7.70;;;2.58;;
49366;SDS011;35245;52.026;8.540;2022-09-17T14:29:26;11.88;;;2.78;;
49366;SDS011;35245;52.026;8.540;2022-09-17T14:31:59;4.85;;;1.77;;
49366;SDS011;35245;52.026;8.540;2022-09-17T14:34:27;8.65;;;2.78;;
49366;SDS011;35245;52.026;8.540;2022-09-17T14:36:54;8.10;;;2.85;;
49366;SDS011;35245;52.026;8.540;2022-09-17T14:39:24;9.70;;;2.80;;
49366;SDS011;35245;52.026;8.540;2022-09-17T14:41:54;8.07;;;1.70;;
49366;SDS011;35245;52.026;8.540;2022-09-17T14:44:21;7.47;;;2.22;;
49366;SDS011;35245;52.026;8.540;2022-09-17T14:46:53;8.98;;;2.00;;
49366;SDS011;35245;52.026;8.540;2022-09-17T14:49:22;8.68;;;2.20;;
49366;SDS011;35245;52.026;8.540;2022-09-17T14:51:50;7.38;;;2.20;;
49366;SDS011;35245;52.026;8.540;2022-09-17T14:54:19;8.50;;;3.25;;
49366;SDS011;35245;52.026;8.540;2022-09-17T14:59:42;6.97;;;2.50;;
49366;SDS011;35245;52.026;8.540;2022-09-17T15:02:26;9.10;;;2.33;;
49366;SDS011;35245;52.026;8.540;2022-09-17T15:04:56;8.95;;;2.55;;
49366;SDS011;35245;52.026;8.540;2022-09-17T15:07:24;6.88;;;1.95;;
49366;SDS011;35245;52.026;8.540;2022-09-17T15:09:52;5.93;;;2.10;;
49366;SDS011;35245;52.026;8.540;2022-09-17T15:12:21;8.13;;;2.53;;
49366;SDS011;35245;52.026;8.540;2022-09-17T15:14:51;12.45;;;2.17;;
49366;SDS011;35245;52.026;8.540;2022-09-17T15:17:20;9.45;;;3.00;;
49366;SDS011;35245;52.026;8.540;2022-09-17T15:19:48;7.10;;;2.53;;
49366;SDS011;35245;52.026;8.540;2022-09-17T15:22:17;13.23;;;3.95;;
49366;SDS011;35245;52.026;8.540;2022-09-17T15:24:46;9.70;;;3.60;;
49366;SDS011;35245;52.026;8.540;2022-09-17T15:27:19;9.65;;;2.47;;
49366;SDS011;35245;52.026;8.540;2022-09-17T15:29:49;7.90;;;3.15;;
49366;SDS011;35245;52.026;8.540;2022-09-17T15:37:42;8.05;;;3.35;;
49366;SDS011;35245;52.026;8.540;2022-09-17T15:40:11;7.90;;;2.10;;
49366;SDS011;35245;52.026;8.540;2022-09-17T15:42:39;9.52;;;4.05;;
49366;SDS011;35245;52.026;8.540;2022-09-17T15:45:17;11.93;;;3.35;;
49366;SDS011;35245;52.026;8.540;2022-09-17T15:47:49;10.30;;;4.13;;